createdAt,value
2019-02-24T00:00:02.261Z,21.47
2019-02-24T00:02:31.489Z,20.93
2019-02-24T00:05:00.563Z,19.90
2019-02-24T00:07:29.666Z,20.67
2019-02-24T00:09:58.833Z,21.83
2019-02-24T00:12:27.880Z,18.90
2019-02-24T00:14:56.953Z,18.73
2019-02-24T00:17:26.710Z,18.37
2019-02-24T00:19:55.808Z,22.53
2019-02-24T00:22:24.952Z,21.03
2019-02-24T00:24:54.094Z,21.73
2019-02-24T00:27:33.282Z,18.90
2019-02-24T00:30:02.380Z,18.80
2019-02-24T00:32:31.444Z,17.73
2019-02-24T00:35:00.572Z,21.43
2019-02-24T00:37:29.648Z,20.43
2019-02-24T00:39:59.052Z,19.67
2019-02-24T00:42:28.193Z,17.27
2019-02-24T00:44:57.302Z,19.87
2019-02-24T00:47:26.413Z,20.60
2019-02-24T00:49:55.510Z,19.50
2019-02-24T00:52:24.648Z,16.50
2019-02-24T00:54:53.787Z,19.03
2019-02-24T00:57:22.870Z,18.47
2019-02-24T00:59:51.993Z,19.10
2019-02-24T01:02:21.073Z,19.33
2019-02-24T01:04:50.184Z,17.80
2019-02-24T01:07:19.282Z,19.60
2019-02-24T01:09:48.369Z,18.83
2019-02-24T01:12:17.486Z,19.67
2019-02-24T01:14:46.721Z,19.37
2019-02-24T01:17:15.810Z,19.00
2019-02-24T01:19:44.899Z,19.47
2019-02-24T01:22:13.995Z,18.40
2019-02-24T01:24:43.070Z,20.30
2019-02-24T01:27:12.171Z,17.03
2019-02-24T01:29:41.300Z,16.03
2019-02-24T01:32:10.421Z,19.53
2019-02-24T01:34:39.485Z,17.00
2019-02-24T01:37:08.583Z,15.30
2019-02-24T01:39:37.654Z,17.60
2019-02-24T01:42:06.763Z,17.63
2019-02-24T01:44:35.820Z,17.37
2019-02-24T01:47:04.914Z,16.73
2019-02-24T01:49:34.210Z,18.13
2019-02-24T01:52:03.678Z,16.43
2019-02-24T01:54:32.802Z,17.37
2019-02-24T01:57:02.222Z,18.20
2019-02-24T02:03:18.651Z,15.70
2019-02-24T02:05:47.722Z,16.37
2019-02-24T02:08:16.817Z,17.80
2019-02-24T02:10:45.889Z,16.20
2019-02-24T02:13:14.994Z,18.07
2019-02-24T02:15:44.216Z,17.57
2019-02-24T02:18:13.266Z,15.60
2019-02-24T02:20:42.366Z,15.90
2019-02-24T02:23:11.428Z,15.00
2019-02-24T02:25:40.533Z,16.53
2019-02-24T02:28:09.609Z,15.50
2019-02-24T02:30:38.704Z,17.53
2019-02-24T02:33:07.773Z,16.03
2019-02-24T02:35:36.875Z,15.77
2019-02-24T02:38:05.994Z,15.80
2019-02-24T02:40:35.560Z,16.03
2019-02-24T02:43:04.626Z,16.57
2019-02-24T02:45:33.801Z,14.40
2019-02-24T02:48:03.210Z,16.47
2019-02-24T02:50:32.309Z,16.00
2019-02-24T02:53:01.385Z,14.73
2019-02-24T02:55:30.546Z,15.87
2019-02-24T02:57:59.681Z,17.00
2019-02-24T03:00:30.015Z,16.60
2019-02-24T03:02:59.114Z,16.27
2019-02-24T03:05:28.208Z,14.97
2019-02-24T03:07:58.938Z,15.50
2019-02-24T03:10:27.999Z,15.80
2019-02-24T03:12:57.122Z,16.77
2019-02-24T03:15:26.508Z,16.27
2019-02-24T03:17:55.628Z,16.07
2019-02-24T03:20:24.795Z,16.13
2019-02-24T03:22:53.889Z,15.00
2019-02-24T03:25:22.987Z,14.90
2019-02-24T03:27:52.074Z,16.13
2019-02-24T03:30:22.227Z,16.37
2019-02-24T03:32:51.331Z,15.57
2019-02-24T03:35:20.430Z,15.37
2019-02-24T03:37:49.786Z,14.07
2019-02-24T03:40:18.876Z,16.80
2019-02-24T03:42:47.979Z,16.67
2019-02-24T03:45:17.083Z,14.40
2019-02-24T03:47:46.540Z,14.50
2019-02-24T03:50:15.629Z,15.67
2019-02-24T03:52:44.736Z,15.43
2019-02-24T03:55:13.973Z,14.67
2019-02-24T03:57:43.019Z,15.27
2019-02-24T04:00:12.102Z,14.60
2019-02-24T04:02:41.157Z,15.13
2019-02-24T04:05:10.239Z,14.60
2019-02-24T04:07:39.322Z,14.07
2019-02-24T04:10:08.470Z,14.10
2019-02-24T04:12:37.574Z,15.60
2019-02-24T04:15:06.701Z,15.50
2019-02-24T04:17:35.753Z,15.77
2019-02-24T04:20:05.070Z,14.37
2019-02-24T04:22:34.178Z,13.70
2019-02-24T04:25:03.260Z,15.47
2019-02-24T04:27:32.358Z,15.23
2019-02-24T04:30:01.459Z,15.17
2019-02-24T04:32:30.549Z,15.07
2019-02-24T04:34:59.648Z,14.43
2019-02-24T04:37:28.743Z,14.40
2019-02-24T04:39:57.840Z,15.77
2019-02-24T04:42:26.928Z,14.80
2019-02-24T04:44:56.023Z,14.13
2019-02-24T04:47:25.068Z,14.47
2019-02-24T04:49:54.155Z,14.03
2019-02-24T04:52:23.245Z,13.90
2019-02-24T04:54:52.337Z,14.00
2019-02-24T04:57:21.395Z,15.50
2019-02-24T04:59:50.533Z,15.00
2019-02-24T05:02:19.597Z,14.53
2019-02-24T05:04:48.665Z,15.33
2019-02-24T05:07:17.744Z,14.40
2019-02-24T05:09:46.849Z,15.70
2019-02-24T05:12:16.024Z,14.43
2019-02-24T05:14:45.674Z,14.00
2019-02-24T05:17:14.774Z,13.63
2019-02-24T05:19:43.872Z,14.47
2019-02-24T05:22:12.956Z,15.17
2019-02-24T05:24:42.032Z,14.00
2019-02-24T05:27:11.127Z,13.23
2019-02-24T05:29:45.934Z,14.77
2019-02-24T05:32:11.005Z,14.07
2019-02-24T05:34:40.076Z,15.47
2019-02-24T05:37:09.136Z,14.57
2019-02-24T05:39:38.295Z,14.87
2019-02-24T05:42:07.393Z,13.63
2019-02-24T05:44:36.558Z,15.40
2019-02-24T05:47:05.654Z,14.63
2019-02-24T05:49:34.708Z,14.50
2019-02-24T05:52:03.975Z,13.90
2019-02-24T05:54:33.097Z,13.70
2019-02-24T05:57:02.171Z,14.23
2019-02-24T05:59:33.187Z,14.50
2019-02-24T06:02:05.561Z,13.37
2019-02-24T06:04:34.944Z,14.20
2019-02-24T06:07:04.103Z,14.23
2019-02-24T06:09:35.169Z,14.00
2019-02-24T06:12:04.329Z,14.10
2019-02-24T06:14:33.437Z,14.33
2019-02-24T06:17:02.581Z,15.40
2019-02-24T06:19:31.629Z,14.67
2019-02-24T06:22:00.726Z,14.50
2019-02-24T06:24:29.805Z,13.83
2019-02-24T06:26:58.873Z,13.67
2019-02-24T06:29:27.936Z,13.83
2019-02-24T06:31:56.993Z,14.20
2019-02-24T06:34:26.089Z,13.73
2019-02-24T06:36:55.809Z,14.57
2019-02-24T06:39:24.864Z,14.17
2019-02-24T06:41:53.932Z,15.43
2019-02-24T06:44:23.022Z,14.50
2019-02-24T06:46:52.105Z,17.10
2019-02-24T06:49:21.200Z,20.27
2019-02-24T06:51:50.324Z,26.50
2019-02-24T06:54:19.746Z,30.90
2019-02-24T06:56:48.833Z,31.87
2019-02-24T06:59:17.893Z,30.33
2019-02-24T07:01:46.953Z,30.00
2019-02-24T07:04:16.331Z,26.27
2019-02-24T07:06:45.377Z,28.00
2019-02-24T07:09:14.478Z,27.07
2019-02-24T07:11:43.538Z,28.97
2019-02-24T07:14:12.697Z,28.60
2019-02-24T07:16:41.782Z,26.93
2019-02-24T07:19:10.861Z,26.30
2019-02-24T07:21:39.997Z,25.73
2019-02-24T07:24:09.053Z,20.47
2019-02-24T07:26:38.107Z,17.50
2019-02-24T07:29:07.193Z,15.87
2019-02-24T07:31:36.283Z,15.07
2019-02-24T07:34:05.382Z,15.80
2019-02-24T07:36:34.556Z,16.13
2019-02-24T07:39:03.624Z,16.13
2019-02-24T07:41:32.770Z,14.93
2019-02-24T07:44:01.863Z,15.50
2019-02-24T07:46:30.908Z,16.20
2019-02-24T07:48:59.968Z,15.43
2019-02-24T07:51:29.734Z,14.67
2019-02-24T07:53:58.801Z,17.10
2019-02-24T07:56:28.088Z,15.40
2019-02-24T07:58:57.185Z,15.47
2019-02-24T08:01:26.237Z,16.87
2019-02-24T08:03:55.307Z,14.57
2019-02-24T08:06:24.405Z,14.30
2019-02-24T08:08:53.494Z,14.43
2019-02-24T08:11:22.645Z,14.67
2019-02-24T08:13:51.688Z,15.20
2019-02-24T08:16:20.819Z,15.70
2019-02-24T08:18:51.936Z,15.53
2019-02-24T08:21:20.669Z,15.07
2019-02-24T08:23:49.727Z,15.83
2019-02-24T08:26:18.821Z,14.67
2019-02-24T08:28:47.917Z,16.07
2019-02-24T08:31:16.970Z,14.37
2019-02-24T08:33:46.024Z,14.97
2019-02-24T08:36:15.075Z,18.10
2019-02-24T08:38:44.238Z,17.13
2019-02-24T08:41:13.309Z,16.90
2019-02-24T08:43:42.390Z,17.80
2019-02-24T08:46:11.433Z,15.97
2019-02-24T08:48:40.496Z,15.27
2019-02-24T08:51:09.593Z,14.83
2019-02-24T08:53:38.662Z,15.77
2019-02-24T08:56:07.783Z,15.80
2019-02-24T08:58:36.858Z,14.13
2019-02-24T09:01:05.958Z,13.40
2019-02-24T09:03:35.009Z,13.73
2019-02-24T09:06:04.092Z,14.27
2019-02-24T09:08:33.175Z,13.93
2019-02-24T09:11:02.226Z,14.50
2019-02-24T09:13:31.309Z,13.33
2019-02-24T09:16:01.543Z,14.17
2019-02-24T09:18:30.627Z,13.17
2019-02-24T09:20:59.701Z,12.57
2019-02-24T09:23:28.757Z,14.37
2019-02-24T09:25:57.834Z,12.67
2019-02-24T09:28:26.882Z,13.10
2019-02-24T09:31:00.737Z,14.50
2019-02-24T09:33:28.660Z,13.20
2019-02-24T09:35:57.746Z,11.77
2019-02-24T09:38:27.175Z,12.23
2019-02-24T09:40:57.301Z,12.63
2019-02-24T09:43:30.438Z,12.37
2019-02-24T09:45:59.486Z,12.27
2019-02-24T09:48:29.448Z,10.70
2019-02-24T09:50:58.996Z,10.97
2019-02-24T09:53:28.045Z,11.07
2019-02-24T09:55:57.103Z,10.97
2019-02-24T09:58:26.148Z,12.00
2019-02-24T10:00:55.232Z,10.83
2019-02-24T10:03:24.290Z,11.60
2019-02-24T10:05:53.332Z,11.60
2019-02-24T10:08:22.890Z,11.70
2019-02-24T10:10:51.936Z,11.13
2019-02-24T10:13:21.031Z,10.70
2019-02-24T10:15:50.080Z,11.93
2019-02-24T10:18:19.408Z,11.03
2019-02-24T10:20:48.826Z,10.90
2019-02-24T10:23:17.920Z,12.13
2019-02-24T10:25:47.035Z,11.70
2019-02-24T10:28:16.125Z,12.17
2019-02-24T10:30:45.189Z,10.93
2019-02-24T10:33:14.334Z,11.27
2019-02-24T10:35:43.410Z,11.87
2019-02-24T10:38:12.466Z,11.57
2019-02-24T10:40:41.559Z,12.67
2019-02-24T10:43:11.082Z,12.80
2019-02-24T10:45:40.185Z,11.60
2019-02-24T10:48:14.102Z,12.27
2019-02-24T10:50:40.312Z,11.67
2019-02-24T10:53:09.396Z,10.83
2019-02-24T10:55:38.466Z,11.60
2019-02-24T10:58:07.545Z,10.60
2019-02-24T11:00:36.617Z,9.63
2019-02-24T11:03:06.002Z,9.50
2019-02-24T11:05:35.044Z,9.80
2019-02-24T11:08:04.117Z,11.03
2019-02-24T11:10:33.186Z,9.43
2019-02-24T11:13:02.265Z,8.73
2019-02-24T11:15:31.314Z,9.17
2019-02-24T11:18:01.549Z,9.90
2019-02-24T11:20:30.813Z,8.60
2019-02-24T11:22:59.886Z,9.53
2019-02-24T11:25:28.967Z,9.07
2019-02-24T11:27:58.003Z,10.10
2019-02-24T11:30:27.105Z,9.57
2019-02-24T11:32:56.153Z,7.40
2019-02-24T11:35:25.196Z,6.37
2019-02-24T11:37:54.288Z,6.37
2019-02-24T11:40:23.353Z,5.87
2019-02-24T11:42:52.399Z,6.20
2019-02-24T11:45:21.440Z,5.20
2019-02-24T11:47:50.541Z,5.77
2019-02-24T11:50:19.611Z,5.60
2019-02-24T11:52:48.648Z,5.17
2019-02-24T11:55:17.737Z,5.27
2019-02-24T11:57:46.848Z,5.20
2019-02-24T12:00:15.994Z,5.23
2019-02-24T12:02:45.030Z,5.30
2019-02-24T12:05:14.109Z,5.17
2019-02-24T12:07:43.148Z,5.47
2019-02-24T12:10:13.142Z,5.00
2019-02-24T12:12:42.444Z,5.00
2019-02-24T12:15:12.656Z,4.90
2019-02-24T12:17:41.694Z,6.23
2019-02-24T12:20:11.646Z,5.77
2019-02-24T12:22:40.700Z,6.70
2019-02-24T12:25:11.285Z,5.00
2019-02-24T12:27:40.436Z,5.50
2019-02-24T12:30:11.442Z,5.80
2019-02-24T12:32:40.489Z,5.67
2019-02-24T12:35:09.557Z,5.63
2019-02-24T12:37:38.596Z,4.90
2019-02-24T12:40:10.353Z,5.67
2019-02-24T12:42:39.455Z,5.80
2019-02-24T12:45:09.637Z,5.83
2019-02-24T12:47:38.692Z,5.47
2019-02-24T12:50:13.057Z,7.53
2019-02-24T12:52:42.141Z,7.40
2019-02-24T12:55:11.459Z,28.17
2019-02-24T12:57:41.290Z,9.83
2019-02-24T13:00:15.279Z,5.47
2019-02-24T13:02:44.316Z,5.40
2019-02-24T13:05:13.369Z,5.83
2019-02-24T13:07:42.443Z,5.33
2019-02-24T13:10:14.072Z,5.47
2019-02-24T13:12:43.157Z,5.70
2019-02-24T13:15:12.230Z,5.40
2019-02-24T13:17:41.282Z,5.17
2019-02-24T13:20:11.097Z,10.53
2019-02-24T13:22:40.181Z,5.40
2019-02-24T13:25:13.736Z,5.30
2019-02-24T13:27:42.816Z,4.67
2019-02-24T13:30:14.492Z,4.67
2019-02-24T13:32:43.536Z,6.27
2019-02-24T13:35:12.596Z,4.77
2019-02-24T13:37:42.356Z,4.73
2019-02-24T13:40:15.946Z,4.10
2019-02-24T13:42:44.981Z,3.87
2019-02-24T13:45:17.178Z,4.13
2019-02-24T13:47:46.335Z,4.47
2019-02-24T13:50:15.409Z,3.70
2019-02-24T13:52:44.638Z,7.20
2019-02-24T13:55:15.513Z,3.73
2019-02-24T13:57:44.640Z,3.63
2019-02-24T14:00:16.826Z,3.30
2019-02-24T14:02:45.871Z,4.03
2019-02-24T14:05:14.911Z,4.30
2019-02-24T14:07:44.081Z,4.37
2019-02-24T14:10:14.439Z,4.20
2019-02-24T14:12:43.480Z,3.93
2019-02-24T14:15:13.610Z,3.83
2019-02-24T14:17:42.655Z,4.83
2019-02-24T14:20:14.025Z,4.63
2019-02-24T14:22:43.107Z,4.30
2019-02-24T14:25:14.152Z,4.13
2019-02-24T14:27:43.270Z,3.80
2019-02-24T14:30:14.928Z,3.97
2019-02-24T14:32:44.420Z,3.53
2019-02-24T14:35:18.036Z,4.27
2019-02-24T14:37:47.697Z,4.70
2019-02-24T14:40:16.808Z,5.00
2019-02-24T14:42:45.882Z,6.10
2019-02-24T14:45:16.860Z,4.77
2019-02-24T14:47:45.918Z,3.87
2019-02-24T14:50:15.001Z,4.60
2019-02-24T14:52:44.081Z,4.10
2019-02-24T14:55:14.287Z,9.07
2019-02-24T14:57:43.745Z,8.03
2019-02-24T15:00:18.453Z,4.50
2019-02-24T15:02:47.549Z,4.97
2019-02-24T15:05:16.948Z,4.57
2019-02-24T15:07:46.265Z,5.20
2019-02-24T15:10:20.029Z,12.30
2019-02-24T15:12:49.110Z,10.37
2019-02-24T15:15:32.949Z,5.57
2019-02-24T15:18:01.064Z,5.70
2019-02-24T15:20:30.117Z,5.37
2019-02-24T15:22:59.160Z,4.40
2019-02-24T15:25:28.216Z,4.70
2019-02-24T15:27:57.261Z,4.97
2019-02-24T15:30:33.310Z,4.90
2019-02-24T15:33:02.389Z,5.37
2019-02-24T15:35:31.479Z,4.80
2019-02-24T15:38:00.621Z,4.60
2019-02-24T15:40:29.706Z,5.17
2019-02-24T15:42:58.777Z,5.13
2019-02-24T15:45:27.858Z,4.70
2019-02-24T15:47:57.102Z,5.13
2019-02-24T15:50:26.249Z,4.40
2019-02-24T15:52:55.288Z,4.57
2019-02-24T15:55:24.680Z,4.80
2019-02-24T15:57:53.761Z,4.90
2019-02-24T16:00:24.041Z,4.80
2019-02-24T16:03:01.153Z,4.50
2019-02-24T16:05:23.906Z,5.17
2019-02-24T16:07:52.989Z,5.50
2019-02-24T16:10:22.537Z,5.17
2019-02-24T16:12:51.612Z,5.43
2019-02-24T16:15:25.199Z,5.50
2019-02-24T16:17:54.266Z,4.93
2019-02-24T16:20:28.724Z,4.90
2019-02-24T16:22:57.801Z,5.93
2019-02-24T16:25:26.878Z,5.30
2019-02-24T16:27:55.934Z,5.53
2019-02-24T16:30:25.077Z,4.90
2019-02-24T16:32:54.174Z,5.00
2019-02-24T16:35:23.293Z,5.90
2019-02-24T16:37:52.451Z,5.97
2019-02-24T16:40:26.872Z,5.60
2019-02-24T16:42:55.927Z,5.57
2019-02-24T16:45:25.073Z,5.00
2019-02-24T16:47:54.116Z,6.43
2019-02-24T16:50:24.867Z,6.17
2019-02-24T16:52:53.926Z,6.40
2019-02-24T16:55:22.990Z,6.30
2019-02-24T16:57:52.106Z,7.00
2019-02-24T17:00:25.462Z,7.47
2019-02-24T17:02:54.506Z,7.03
2019-02-24T17:05:23.548Z,7.43
2019-02-24T17:07:52.593Z,6.37
2019-02-24T17:10:29.069Z,8.87
2019-02-24T17:12:58.154Z,7.00
2019-02-24T17:15:27.228Z,7.93
2019-02-24T17:17:56.364Z,7.40
2019-02-24T17:20:27.588Z,6.47
2019-02-24T17:22:56.745Z,7.03
2019-02-24T17:25:25.882Z,7.03
2019-02-24T17:27:55.022Z,7.40
2019-02-24T17:30:24.160Z,8.00
2019-02-24T17:32:53.249Z,8.03
2019-02-24T17:35:22.326Z,6.93
2019-02-24T17:37:51.417Z,7.27
2019-02-24T17:40:21.540Z,7.60
2019-02-24T17:42:50.585Z,7.83
2019-02-24T17:45:19.637Z,9.67
2019-02-24T17:47:49.253Z,11.00
2019-02-24T17:50:19.581Z,10.80
2019-02-24T17:52:48.751Z,10.33
2019-02-24T17:55:19.178Z,10.23
2019-02-24T17:57:48.266Z,10.63
2019-02-24T18:00:42.977Z,9.23
2019-02-24T18:03:12.065Z,11.07
2019-02-24T18:05:41.277Z,10.37
2019-02-24T18:08:10.351Z,8.33
2019-02-24T18:10:39.416Z,9.23
2019-02-24T18:13:08.562Z,9.50
2019-02-24T18:15:37.649Z,11.60
2019-02-24T18:18:06.709Z,12.47
2019-02-24T18:20:35.798Z,14.27
2019-02-24T18:23:04.850Z,19.40
2019-02-24T18:25:33.934Z,19.57
2019-02-24T18:28:03.092Z,18.87
2019-02-24T18:30:32.151Z,17.77
2019-02-24T18:33:01.276Z,16.20
2019-02-24T18:35:30.366Z,14.70
2019-02-24T18:37:59.448Z,13.50
2019-02-24T18:40:28.558Z,11.37
2019-02-24T18:43:00.538Z,12.50
2019-02-24T18:45:28.442Z,11.57
2019-02-24T18:47:57.499Z,11.90
2019-02-24T18:50:26.557Z,12.03
2019-02-24T18:52:55.605Z,11.50
2019-02-24T18:55:24.698Z,10.23
2019-02-24T18:57:53.787Z,10.67
2019-02-24T19:00:23.616Z,11.10
2019-02-24T19:02:55.139Z,10.93
2019-02-24T19:05:26.549Z,11.57
2019-02-24T19:07:57.593Z,11.73
2019-02-24T19:10:26.678Z,11.17
2019-02-24T19:12:55.737Z,10.27
2019-02-24T19:15:25.230Z,10.60
2019-02-24T19:17:54.282Z,10.97
2019-02-24T19:20:24.210Z,10.17
2019-02-24T19:22:53.269Z,11.10
2019-02-24T19:25:22.447Z,9.60
2019-02-24T19:27:51.534Z,10.63
2019-02-24T19:30:21.316Z,10.77
2019-02-24T19:32:50.392Z,11.57
2019-02-24T19:35:19.650Z,10.60
2019-02-24T19:37:48.811Z,10.10
2019-02-24T19:40:18.809Z,10.60
2019-02-24T19:42:47.866Z,10.83
2019-02-24T19:45:30.933Z,10.40
2019-02-24T19:48:00.793Z,11.83
2019-02-24T19:50:29.941Z,12.03
2019-02-24T19:53:00.052Z,12.00
2019-02-24T19:55:29.138Z,11.43
2019-02-24T19:57:58.270Z,11.80
2019-02-24T20:00:27.350Z,11.93
2019-02-24T20:03:07.540Z,11.63
2019-02-24T20:05:36.617Z,11.53
2019-02-24T20:08:05.703Z,10.43
2019-02-24T20:10:34.761Z,11.83
2019-02-24T20:13:03.820Z,11.33
2019-02-24T20:15:32.905Z,10.70
2019-02-24T20:18:01.956Z,12.40
2019-02-24T20:20:31.016Z,13.50
2019-02-24T20:23:02.048Z,11.47
2019-02-24T20:25:31.139Z,11.83
2019-02-24T20:28:00.289Z,12.40
2019-02-24T20:30:31.108Z,12.37
2019-02-24T20:33:00.224Z,11.20
2019-02-24T20:35:29.373Z,12.93
2019-02-24T20:37:58.526Z,12.23
2019-02-24T20:40:27.902Z,13.03
2019-02-24T20:42:56.981Z,14.10
2019-02-24T20:45:26.065Z,14.73
2019-02-24T20:47:55.140Z,16.03
2019-02-24T20:50:29.299Z,18.13
2019-02-24T20:52:58.347Z,17.27
2019-02-24T20:55:27.461Z,17.73
2019-02-24T20:57:56.584Z,17.47
2019-02-24T21:00:46.972Z,18.67
2019-02-24T21:03:16.044Z,15.77
2019-02-24T21:05:45.093Z,15.20
2019-02-24T21:08:14.183Z,17.17
2019-02-24T21:10:43.349Z,15.23
2019-02-24T21:13:12.434Z,15.90
2019-02-24T21:15:41.493Z,15.50
2019-02-24T21:18:11.438Z,15.20
2019-02-24T21:20:40.565Z,15.83
2019-02-24T21:23:09.617Z,15.13
2019-02-24T21:25:38.738Z,15.17
2019-02-24T21:28:07.886Z,15.37
2019-02-24T21:30:36.933Z,15.40
2019-02-24T21:33:06.049Z,15.50
2019-02-24T21:35:35.128Z,15.20
2019-02-24T21:38:04.223Z,14.60
2019-02-24T21:40:33.319Z,14.63
2019-02-24T21:43:02.441Z,13.10
2019-02-24T21:45:31.517Z,13.57
2019-02-24T21:48:00.878Z,12.70
2019-02-24T21:50:30.034Z,13.00
2019-02-24T21:52:59.116Z,12.43
2019-02-24T21:55:28.177Z,13.87
2019-02-24T21:57:57.265Z,12.30
2019-02-24T22:00:26.960Z,14.07
2019-02-24T22:02:56.050Z,13.50
2019-02-24T22:05:25.143Z,12.83
2019-02-24T22:07:55.672Z,13.17
2019-02-24T22:10:25.133Z,14.13
2019-02-24T22:12:54.233Z,13.10
2019-02-24T22:15:24.535Z,14.30
2019-02-24T22:17:53.589Z,13.67
2019-02-24T22:20:22.666Z,13.70
2019-02-24T22:22:51.762Z,14.10
2019-02-24T22:25:21.099Z,13.27
2019-02-24T22:27:50.671Z,13.10
2019-02-24T22:30:23.277Z,13.70
2019-02-24T22:32:52.373Z,13.33
2019-02-24T22:35:21.468Z,13.17
2019-02-24T22:37:50.594Z,12.67
2019-02-24T22:40:19.685Z,13.13
2019-02-24T22:42:48.785Z,11.83
2019-02-24T22:45:21.426Z,14.43
2019-02-24T22:47:50.563Z,13.67
2019-02-24T22:50:19.624Z,12.53
2019-02-24T22:52:48.676Z,13.60
2019-02-24T22:55:20.858Z,14.27
2019-02-24T22:57:49.948Z,13.90
2019-02-24T23:00:34.901Z,13.97
2019-02-24T23:03:04.049Z,13.83
2019-02-24T23:05:33.097Z,14.80
2019-02-24T23:08:02.161Z,13.70
2019-02-24T23:10:31.255Z,14.33
2019-02-24T23:13:00.338Z,14.70
2019-02-24T23:15:29.389Z,13.33
2019-02-24T23:17:58.486Z,14.17
2019-02-24T23:20:27.540Z,14.50
2019-02-24T23:22:56.769Z,14.40
2019-02-24T23:25:26.122Z,14.43
2019-02-24T23:27:55.215Z,15.87
2019-02-24T23:30:24.301Z,15.07
2019-02-24T23:32:53.479Z,16.07
2019-02-24T23:35:22.535Z,15.10
2019-02-24T23:37:51.646Z,15.23
2019-02-24T23:40:20.698Z,15.67
2019-02-24T23:42:49.752Z,14.73
2019-02-24T23:45:18.844Z,14.33
2019-02-24T23:47:47.961Z,14.13
2019-02-24T23:50:17.020Z,16.67
2019-02-24T23:52:46.081Z,15.00
2019-02-24T23:55:15.170Z,14.80
2019-02-24T23:57:44.234Z,15.00
